sensor_id;sensor_type;location;lat;lon;timestamp;pressure;altitude;pressure_sealevel;temperature;humidity
14343;BME280;7255;53.596;9.960;2023-02-17T00:01:25;101367.03;;;8.63;nan
14343;BME280;7255;53.596;9.960;2023-02-17T00:03:52;101371.56;;;8.62;nan
14343;BME280;7255;53.596;9.960;2023-02-17T00:06:22;101363.31;;;8.64;nan
14343;BME280;7255;53.596;9.960;2023-02-17T00:08:49;101362.50;;;8.63;nan
14343;BME280;7255;53.596;9.960;2023-02-17T00:11:16;101360.06;;;8.69;nan
14343;BME280;7255;53.596;9.960;2023-02-17T00:13:43;101359.66;;;8.72;nan
14343;BME280;7255;53.596;9.960;2023-02-17T00:16:11;101364.19;;;8.71;nan
14343;BME280;7255;53.596;9.960;2023-02-17T00:18:38;101356.41;;;8.76;nan
14343;BME280;7255;53.596;9.960;2023-02-17T00:21:12;101347.72;;;8.74;nan
14343;BME280;7255;53.596;9.960;2023-02-17T00:23:42;101349.78;;;8.72;nan
14343;BME280;7255;53.596;9.960;2023-02-17T00:26:08;101335.75;;;8.70;nan
14343;BME280;7255;53.596;9.960;2023-02-17T00:28:35;101345.63;;;8.70;nan
14343;BME280;7255;53.596;9.960;2023-02-17T00:31:05;101340.31;;;8.76;nan
14343;BME280;7255;53.596;9.960;2023-02-17T00:33:32;101339.94;;;8.79;nan
14343;BME280;7255;53.596;9.960;2023-02-17T00:36:00;101339.09;;;8.79;nan
14343;BME280;7255;53.596;9.960;2023-02-17T00:38:27;101330.84;;;8.80;nan
14343;BME280;7255;53.596;9.960;2023-02-17T00:40:55;101330.28;;;8.85;nan
14343;BME280;7255;53.596;9.960;2023-02-17T00:43:21;101326.72;;;8.78;nan
14343;BME280;7255;53.596;9.960;2023-02-17T00:45:47;101331.69;;;8.81;nan
14343;BME280;7255;53.596;9.960;2023-02-17T00:48:14;101327.16;;;8.81;nan
14343;BME280;7255;53.596;9.960;2023-02-17T00:50:40;101334.16;;;8.82;nan
14343;BME280;7255;53.596;9.960;2023-02-17T00:53:06;101326.72;;;8.78;nan
14343;BME280;7255;53.596;9.960;2023-02-17T00:55:33;101325.06;;;8.77;nan
14343;BME280;7255;53.596;9.960;2023-02-17T00:58:00;101324.69;;;8.80;nan
14343;BME280;7255;53.596;9.960;2023-02-17T01:00:27;101330.47;;;8.83;nan
14343;BME280;7255;53.596;9.960;2023-02-17T01:02:53;101333.34;;;8.82;nan
14343;BME280;7255;53.596;9.960;2023-02-17T01:05:19;101329.22;;;8.79;nan
14343;BME280;7255;53.596;9.960;2023-02-17T01:07:46;101327.56;;;8.78;nan
14343;BME280;7255;53.596;9.960;2023-02-17T01:10:12;101311.47;;;8.78;nan
14343;BME280;7255;53.596;9.960;2023-02-17T01:12:39;101312.78;;;8.89;nan
14343;BME280;7255;53.596;9.960;2023-02-17T01:15:07;101312.78;;;8.89;nan
14343;BME280;7255;53.596;9.960;2023-02-17T01:17:33;101303.28;;;8.86;nan
14343;BME280;7255;53.596;9.960;2023-02-17T01:19:59;101303.69;;;8.90;nan
14343;BME280;7255;53.596;9.960;2023-02-17T01:22:26;101296.72;;;8.96;nan
14343;BME280;7255;53.596;9.960;2023-02-17T01:24:52;101297.34;;;9.04;nan
14343;BME280;7255;53.596;9.960;2023-02-17T01:27:19;101301.31;;;9.09;nan
14343;BME280;7255;53.596;9.960;2023-02-17T01:29:45;101305.81;;;9.01;nan
14343;BME280;7255;53.596;9.960;2023-02-17T01:32:13;101288.09;;;9.07;nan
14343;BME280;7255;53.596;9.960;2023-02-17T01:34:39;101288.09;;;9.07;nan
14343;BME280;7255;53.596;9.960;2023-02-17T01:37:05;101283.94;;;8.98;nan
14343;BME280;7255;53.596;9.960;2023-02-17T01:39:32;101281.47;;;8.96;nan
14343;BME280;7255;53.596;9.960;2023-02-17T01:41:58;101276.97;;;9.03;nan
14343;BME280;7255;53.596;9.960;2023-02-17T01:44:25;101284.37;;;9.01;nan
14343;BME280;7255;53.596;9.960;2023-02-17T01:46:53;101276.53;;;9.06;nan
14343;BME280;7255;53.596;9.960;2023-02-17T01:49:27;101275.72;;;9.06;nan
14343;BME280;7255;53.596;9.960;2023-02-17T01:51:58;101263.34;;;9.12;nan
14343;BME280;7255;53.596;9.960;2023-02-17T01:54:29;101255.94;;;9.14;nan
14343;BME280;7255;53.596;9.960;2023-02-17T01:56:59;101247.28;;;9.05;nan
14343;BME280;7255;53.596;9.960;2023-02-17T01:59:27;101249.34;;;9.03;nan
14343;BME280;7255;53.596;9.960;2023-02-17T02:01:57;101248.09;;;9.05;nan
14343;BME280;7255;53.596;9.960;2023-02-17T02:04:29;101242.75;;;9.12;nan
14343;BME280;7255;53.596;9.960;2023-02-17T02:06:57;101236.94;;;9.02;nan
14343;BME280;7255;53.596;9.960;2023-02-17T02:09:28;101227.88;;;9.10;nan
14343;BME280;7255;53.596;9.960;2023-02-17T02:11:56;101225.00;;;9.11;nan
14343;BME280;7255;53.596;9.960;2023-02-17T02:14:24;101225.41;;;9.08;nan
14343;BME280;7255;53.596;9.960;2023-02-17T02:16:55;101209.31;;;9.08;nan
14343;BME280;7255;53.596;9.960;2023-02-17T02:19:44;101201.50;;;9.13;nan
14343;BME280;7255;53.596;9.960;2023-02-17T02:22:39;101197.38;;;9.17;nan
14343;BME280;7255;53.596;9.960;2023-02-17T02:25:25;101189.97;;;9.13;nan
14343;BME280;7255;53.596;9.960;2023-02-17T02:28:07;101190.97;;;9.12;nan
14343;BME280;7255;53.596;9.960;2023-02-17T02:30:49;101196.97;;;9.14;nan
14343;BME280;7255;53.596;9.960;2023-02-17T02:33:28;101189.56;;;9.22;nan
14343;BME280;7255;53.596;9.960;2023-02-17T02:36:02;101186.66;;;9.17;nan
14343;BME280;7255;53.596;9.960;2023-02-17T02:38:35;101181.72;;;9.14;nan
14343;BME280;7255;53.596;9.960;2023-02-17T02:41:06;101178.81;;;9.22;nan
14343;BME280;7255;53.596;9.960;2023-02-17T02:43:36;101170.19;;;9.27;nan
14343;BME280;7255;53.596;9.960;2023-02-17T02:46:02;101169.78;;;9.23;nan
14343;BME280;7255;53.596;9.960;2023-02-17T02:48:30;101182.97;;;9.18;nan
14343;BME280;7255;53.596;9.960;2023-02-17T02:51:09;101179.66;;;9.23;nan
14343;BME280;7255;53.596;9.960;2023-02-17T02:54:00;101187.06;;;9.21;nan
14343;BME280;7255;53.596;9.960;2023-02-17T02:56:37;101174.28;;;9.23;nan
14343;BME280;7255;53.596;9.960;2023-02-17T02:59:17;101171.00;;;9.28;nan
14343;BME280;7255;53.596;9.960;2023-02-17T03:01:53;101166.03;;;9.24;nan
14343;BME280;7255;53.596;9.960;2023-02-17T03:04:29;101149.75;;;9.26;nan
14343;BME280;7255;53.596;9.960;2023-02-17T03:07:02;101154.50;;;9.31;nan
14343;BME280;7255;53.596;9.960;2023-02-17T03:09:30;101159.03;;;9.23;nan
14343;BME280;7255;53.596;9.960;2023-02-17T03:11:57;101144.19;;;9.14;nan
14343;BME280;7255;53.596;9.960;2023-02-17T03:14:24;101149.94;;;9.11;nan
14343;BME280;7255;53.596;9.960;2023-02-17T03:16:51;101152.44;;;9.26;nan
14343;BME280;7255;53.596;9.960;2023-02-17T03:19:21;101143.75;;;9.17;nan
14343;BME280;7255;53.596;9.960;2023-02-17T03:21:52;101138.00;;;9.20;nan
14343;BME280;7255;53.596;9.960;2023-02-17T03:24:22;101124.38;;;9.15;nan
14343;BME280;7255;53.596;9.960;2023-02-17T03:26:48;101126.88;;;9.23;nan
14343;BME280;7255;53.596;9.960;2023-02-17T03:29:14;101126.44;;;9.27;nan
14343;BME280;7255;53.596;9.960;2023-02-17T03:31:41;101129.34;;;9.32;nan
14343;BME280;7255;53.596;9.960;2023-02-17T03:34:07;101134.91;;;9.30;nan
14343;BME280;7255;53.596;9.960;2023-02-17T03:36:34;101128.09;;;9.34;nan
14343;BME280;7255;53.596;9.960;2023-02-17T03:39:02;101133.88;;;9.44;nan
14343;BME280;7255;53.596;9.960;2023-02-17T03:41:28;101116.53;;;9.34;nan
14343;BME280;7255;53.596;9.960;2023-02-17T03:43:55;101114.91;;;9.33;nan
14343;BME280;7255;53.596;9.960;2023-02-17T03:46:21;101123.97;;;9.32;nan
14343;BME280;7255;53.596;9.960;2023-02-17T03:48:47;101113.25;;;9.32;nan
14343;BME280;7255;53.596;9.960;2023-02-17T03:51:15;101119.84;;;9.29;nan
14343;BME280;7255;53.596;9.960;2023-02-17T03:53:42;101117.78;;;9.38;nan
14343;BME280;7255;53.596;9.960;2023-02-17T03:56:12;101107.06;;;9.38;nan
14343;BME280;7255;53.596;9.960;2023-02-17T03:58:39;101104.56;;;9.43;nan
14343;BME280;7255;53.596;9.960;2023-02-17T04:01:08;101111.19;;;9.47;nan
14343;BME280;7255;53.596;9.960;2023-02-17T04:03:36;101103.34;;;9.46;nan
14343;BME280;7255;53.596;9.960;2023-02-17T04:06:03;101089.31;;;9.43;nan
14343;BME280;7255;53.596;9.960;2023-02-17T04:08:30;101097.13;;;9.45;nan
14343;BME280;7255;53.596;9.960;2023-02-17T04:10:58;101079.81;;;9.41;nan
14343;BME280;7255;53.596;9.960;2023-02-17T04:13:26;101087.66;;;9.49;nan
14343;BME280;7255;53.596;9.960;2023-02-17T04:15:53;101077.34;;;9.46;nan
14343;BME280;7255;53.596;9.960;2023-02-17T04:18:20;101082.28;;;9.42;nan
14343;BME280;7255;53.596;9.960;2023-02-17T04:20:48;101096.31;;;9.51;nan
14343;BME280;7255;53.596;9.960;2023-02-17T04:23:15;101097.13;;;9.58;nan
14343;BME280;7255;53.596;9.960;2023-02-17T04:25:42;101097.13;;;9.58;nan
14343;BME280;7255;53.596;9.960;2023-02-17T04:28:10;101098.78;;;9.59;nan
14343;BME280;7255;53.596;9.960;2023-02-17T04:30:38;101092.59;;;9.52;nan
14343;BME280;7255;53.596;9.960;2023-02-17T04:33:04;101084.78;;;9.51;nan
14343;BME280;7255;53.596;9.960;2023-02-17T04:35:31;101095.06;;;9.54;nan
14343;BME280;7255;53.596;9.960;2023-02-17T04:37:57;101084.75;;;9.57;nan
14343;BME280;7255;53.596;9.960;2023-02-17T04:40:23;101088.44;;;9.63;nan
14343;BME280;7255;53.596;9.960;2023-02-17T04:42:50;101083.06;;;9.70;nan
14343;BME280;7255;53.596;9.960;2023-02-17T04:45:16;101083.06;;;9.76;nan
14343;BME280;7255;53.596;9.960;2023-02-17T04:47:43;101084.72;;;9.71;nan
14343;BME280;7255;53.596;9.960;2023-02-17T04:50:10;101079.78;;;9.68;nan
14343;BME280;7255;53.596;9.960;2023-02-17T04:52:37;101085.16;;;9.68;nan
14343;BME280;7255;53.596;9.960;2023-02-17T04:55:05;101085.56;;;9.71;nan
14343;BME280;7255;53.596;9.960;2023-02-17T04:57:31;101083.47;;;9.80;nan
14343;BME280;7255;53.596;9.960;2023-02-17T04:59:58;101074.37;;;9.74;nan
14343;BME280;7255;53.596;9.960;2023-02-17T05:02:24;101073.97;;;9.71;nan
14343;BME280;7255;53.596;9.960;2023-02-17T05:04:53;101075.22;;;9.75;nan
14343;BME280;7255;53.596;9.960;2023-02-17T05:07:20;101063.69;;;9.68;nan
14343;BME280;7255;53.596;9.960;2023-02-17T05:09:46;101065.75;;;9.66;nan
14343;BME280;7255;53.596;9.960;2023-02-17T05:12:12;101059.12;;;9.75;nan
14343;BME280;7255;53.596;9.960;2023-02-17T05:14:39;101055.78;;;9.79;nan
14343;BME280;7255;53.596;9.960;2023-02-17T05:17:05;101048.81;;;9.72;nan
14343;BME280;7255;53.596;9.960;2023-02-17T05:19:32;101041.78;;;9.71;nan
14343;BME280;7255;53.596;9.960;2023-02-17T05:21:59;101038.06;;;9.78;nan
14343;BME280;7255;53.596;9.960;2023-02-17T05:24:26;101032.22;;;9.88;nan
14343;BME280;7255;53.596;9.960;2023-02-17T05:26:52;101021.91;;;9.85;nan
14343;BME280;7255;53.596;9.960;2023-02-17T05:29:18;101031.03;;;9.84;nan
14343;BME280;7255;53.596;9.960;2023-02-17T05:31:45;101029.41;;;9.76;nan
14343;BME280;7255;53.596;9.960;2023-02-17T05:34:12;101027.72;;;9.82;nan
14343;BME280;7255;53.596;9.960;2023-02-17T05:36:38;101005.00;;;9.78;nan
14343;BME280;7255;53.596;9.960;2023-02-17T05:39:05;101007.09;;;9.76;nan
14343;BME280;7255;53.596;9.960;2023-02-17T05:41:33;101013.31;;;9.76;nan
14343;BME280;7255;53.596;9.960;2023-02-17T05:43:59;101021.13;;;9.78;nan
14343;BME280;7255;53.596;9.960;2023-02-17T05:46:25;100995.94;;;9.79;nan
14343;BME280;7255;53.596;9.960;2023-02-17T05:48:51;100983.94;;;9.88;nan
14343;BME280;7255;53.596;9.960;2023-02-17T05:51:18;100985.59;;;9.82;nan
14343;BME280;7255;53.596;9.960;2023-02-17T05:53:44;100988.50;;;9.74;nan
14343;BME280;7255;53.596;9.960;2023-02-17T05:56:12;100981.12;;;9.63;nan
14343;BME280;7255;53.596;9.960;2023-02-17T05:58:38;100981.12;;;9.70;nan
14343;BME280;7255;53.596;9.960;2023-02-17T06:01:07;100985.19;;;9.79;nan
14343;BME280;7255;53.596;9.960;2023-02-17T06:03:33;100968.91;;;9.74;nan
14343;BME280;7255;53.596;9.960;2023-02-17T06:05:59;100975.72;;;9.76;nan
14343;BME280;7255;53.596;9.960;2023-02-17T06:08:26;100976.53;;;9.77;nan
14343;BME280;7255;53.596;9.960;2023-02-17T06:10:52;100985.63;;;9.76;nan
14343;BME280;7255;53.596;9.960;2023-02-17T06:13:20;100986.41;;;9.83;nan
14343;BME280;7255;53.596;9.960;2023-02-17T06:15:47;100977.75;;;9.81;nan
14343;BME280;7255;53.596;9.960;2023-02-17T06:18:13;100984.34;;;9.85;nan
14343;BME280;7255;53.596;9.960;2023-02-17T06:20:39;100966.59;;;9.84;nan
14343;BME280;7255;53.596;9.960;2023-02-17T06:23:06;100959.19;;;9.79;nan
14343;BME280;7255;53.596;9.960;2023-02-17T06:25:32;100953.00;;;9.79;nan
14343;BME280;7255;53.596;9.960;2023-02-17T06:27:58;100956.69;;;9.85;nan
14343;BME280;7255;53.596;9.960;2023-02-17T06:30:26;100950.06;;;9.87;nan
14343;BME280;7255;53.596;9.960;2023-02-17T06:32:52;100943.47;;;9.83;nan
14343;BME280;7255;53.596;9.960;2023-02-17T06:35:18;100926.97;;;9.86;nan
14343;BME280;7255;53.596;9.960;2023-02-17T06:37:45;100934.41;;;9.84;nan
14343;BME280;7255;53.596;9.960;2023-02-17T06:40:12;100911.66;;;9.87;nan
14343;BME280;7255;53.596;9.960;2023-02-17T06:42:38;100913.34;;;9.88;nan
14343;BME280;7255;53.596;9.960;2023-02-17T06:45:05;100910.03;;;9.86;nan
14343;BME280;7255;53.596;9.960;2023-02-17T06:47:34;100910.06;;;9.79;nan
14343;BME280;7255;53.596;9.960;2023-02-17T06:50:00;100890.72;;;9.70;nan
14343;BME280;7255;53.596;9.960;2023-02-17T06:52:27;100892.78;;;9.68;nan
14343;BME280;7255;53.596;9.960;2023-02-17T06:54:53;100897.34;;;9.68;nan
14343;BME280;7255;53.596;9.960;2023-02-17T06:57:19;100893.59;;;9.69;nan
14343;BME280;7255;53.596;9.960;2023-02-17T06:59:46;100884.50;;;9.76;nan
14343;BME280;7255;53.596;9.960;2023-02-17T07:02:12;100888.22;;;9.75;nan
14343;BME280;7255;53.596;9.960;2023-02-17T07:04:41;100879.06;;;9.83;nan
14343;BME280;7255;53.596;9.960;2023-02-17T07:07:08;100871.69;;;9.78;nan
14343;BME280;7255;53.596;9.960;2023-02-17T07:09:35;100865.47;;;9.78;nan
14343;BME280;7255;53.596;9.960;2023-02-17T07:12:02;100870.03;;;9.77;nan
14343;BME280;7255;53.596;9.960;2023-02-17T07:14:32;100864.28;;;9.74;nan
14343;BME280;7255;53.596;9.960;2023-02-17T07:16:58;100873.41;;;9.66;nan
14343;BME280;7255;53.596;9.960;2023-02-17T07:19:25;100861.41;;;9.69;nan
14343;BME280;7255;53.596;9.960;2023-02-17T07:21:53;100876.25;;;9.71;nan
14343;BME280;7255;53.596;9.960;2023-02-17T07:24:20;100873.75;;;9.76;nan
14343;BME280;7255;53.596;9.960;2023-02-17T07:26:46;100864.66;;;9.77;nan
14343;BME280;7255;53.596;9.960;2023-02-17T07:29:13;100858.91;;;9.74;nan
14343;BME280;7255;53.596;9.960;2023-02-17T07:31:39;100852.72;;;9.73;nan
14343;BME280;7255;53.596;9.960;2023-02-17T07:34:05;100868.84;;;9.67;nan
14343;BME280;7255;53.596;9.960;2023-02-17T07:36:32;100861.41;;;9.69;nan
14343;BME280;7255;53.596;9.960;2023-02-17T07:39:00;100853.97;;;9.71;nan
14343;BME280;7255;53.596;9.960;2023-02-17T07:41:27;100856.81;;;9.76;nan
14343;BME280;7255;53.596;9.960;2023-02-17T07:43:55;100854.81;;;9.71;nan
14343;BME280;7255;53.596;9.960;2023-02-17T07:46:22;100848.22;;;9.67;nan
14343;BME280;7255;53.596;9.960;2023-02-17T07:48:49;100857.50;;;9.64;nan
14343;BME280;7255;53.596;9.960;2023-02-17T07:51:17;100845.31;;;9.69;nan
14343;BME280;7255;53.596;9.960;2023-02-17T07:53:44;100844.53;;;9.61;nan
14343;BME280;7255;53.596;9.960;2023-02-17T07:56:14;100833.41;;;9.58;nan
14343;BME280;7255;53.596;9.960;2023-02-17T07:58:41;100850.28;;;9.65;nan
14343;BME280;7255;53.596;9.960;2023-02-17T08:01:10;100842.47;;;9.63;nan
14343;BME280;7255;53.596;9.960;2023-02-17T08:03:37;100820.16;;;9.63;nan
14343;BME280;7255;53.596;9.960;2023-02-17T08:06:07;100822.63;;;9.64;nan
14343;BME280;7255;53.596;9.960;2023-02-17T08:08:33;100807.81;;;9.62;nan
14343;BME280;7255;53.596;9.960;2023-02-17T08:11:18;100809.81;;;9.67;nan
14343;BME280;7255;53.596;9.960;2023-02-17T08:14:03;100799.94;;;9.67;nan
14343;BME280;7255;53.596;9.960;2023-02-17T08:16:29;100788.38;;;9.67;nan
14343;BME280;7255;53.596;9.960;2023-02-17T08:18:56;100783.84;;;9.67;nan
14343;BME280;7255;53.596;9.960;2023-02-17T08:21:22;100788.75;;;9.70;nan
14343;BME280;7255;53.596;9.960;2023-02-17T08:23:49;100772.19;;;9.80;nan
14343;BME280;7255;53.596;9.960;2023-02-17T08:26:16;100774.25;;;9.78;nan
14343;BME280;7255;53.596;9.960;2023-02-17T08:28:44;100760.28;;;9.69;nan
14343;BME280;7255;53.596;9.960;2023-02-17T08:31:14;100753.69;;;9.65;nan
14343;BME280;7255;53.596;9.960;2023-02-17T08:33:41;100747.62;;;9.51;nan
14343;BME280;7255;53.596;9.960;2023-02-17T08:36:08;100758.75;;;9.55;nan
14343;BME280;7255;53.596;9.960;2023-02-17T08:38:35;100745.91;;;9.63;nan
14343;BME280;7255;53.596;9.960;2023-02-17T08:41:01;100756.13;;;9.73;nan
14343;BME280;7255;53.596;9.960;2023-02-17T08:43:27;100768.06;;;9.77;nan
14343;BME280;7255;53.596;9.960;2023-02-17T08:45:55;100737.12;;;9.75;nan
14343;BME280;7255;53.596;9.960;2023-02-17T08:48:21;100744.59;;;9.73;nan
14343;BME280;7255;53.596;9.960;2023-02-17T08:50:47;100732.63;;;9.69;nan
14343;BME280;7255;53.596;9.960;2023-02-17T08:53:14;100753.22;;;9.75;nan
14343;BME280;7255;53.596;9.960;2023-02-17T08:55:40;100746.22;;;9.74;nan
14343;BME280;7255;53.596;9.960;2023-02-17T08:58:06;100765.66;;;9.69;nan
14343;BME280;7255;53.596;9.960;2023-02-17T09:00:33;100765.28;;;9.66;nan
14343;BME280;7255;53.596;9.960;2023-02-17T09:03:01;100757.81;;;9.68;nan
14343;BME280;7255;53.596;9.960;2023-02-17T09:05:27;100770.97;;;9.76;nan
14343;BME280;7255;53.596;9.960;2023-02-17T09:07:53;100776.78;;;9.73;nan
14343;BME280;7255;53.596;9.960;2023-02-17T09:10:19;100766.06;;;9.73;nan
14343;BME280;7255;53.596;9.960;2023-02-17T09:12:46;100738.44;;;9.66;nan
14343;BME280;7255;53.596;9.960;2023-02-17T09:15:12;100738.44;;;9.66;nan
14343;BME280;7255;53.596;9.960;2023-02-17T09:17:39;100745.50;;;9.60;nan
14343;BME280;7255;53.596;9.960;2023-02-17T09:20:08;100745.41;;;9.73;nan
14343;BME280;7255;53.596;9.960;2023-02-17T09:22:35;100733.50;;;9.62;nan
14343;BME280;7255;53.596;9.960;2023-02-17T09:25:01;100745.91;;;9.63;nan
14343;BME280;7255;53.596;9.960;2023-02-17T09:27:28;100721.50;;;9.65;nan
14343;BME280;7255;53.596;9.960;2023-02-17T09:29:54;100717.81;;;9.66;nan
14343;BME280;7255;53.596;9.960;2023-02-17T09:32:20;100719.75;;;9.77;nan
14343;BME280;7255;53.596;9.960;2023-02-17T09:34:47;100712.06;;;9.88;nan
14343;BME280;7255;53.596;9.960;2023-02-17T09:37:16;100704.38;;;9.91;nan
14343;BME280;7255;53.596;9.960;2023-02-17T09:39:42;100697.78;;;9.87;nan
14343;BME280;7255;53.596;9.960;2023-02-17T09:42:16;100699.44;;;9.88;nan
14343;BME280;7255;53.596;9.960;2023-02-17T09:44:46;100714.22;;;9.97;nan
14343;BME280;7255;53.596;9.960;2023-02-17T09:47:17;100699.50;;;9.81;nan
14343;BME280;7255;53.596;9.960;2023-02-17T09:49:49;100689.22;;;9.78;nan
14343;BME280;7255;53.596;9.960;2023-02-17T09:52:22;100672.28;;;9.78;nan
14343;BME280;7255;53.596;9.960;2023-02-17T09:54:58;100684.63;;;9.86;nan
14343;BME280;7255;53.596;9.960;2023-02-17T09:57:31;100676.31;;;9.87;nan
14343;BME280;7255;53.596;9.960;2023-02-17T10:00:03;100663.16;;;9.86;nan
14343;BME280;7255;53.596;9.960;2023-02-17T10:02:35;100679.62;;;9.89;nan
14343;BME280;7255;53.596;9.960;2023-02-17T10:05:07;100687.91;;;9.88;nan
14343;BME280;7255;53.596;9.960;2023-02-17T10:07:40;100691.19;;;9.90;nan
14343;BME280;7255;53.596;9.960;2023-02-17T10:10:10;100701.91;;;9.90;nan
14343;BME280;7255;53.596;9.960;2023-02-17T10:12:43;100696.16;;;9.86;nan
14343;BME280;7255;53.596;9.960;2023-02-17T10:15:13;100695.66;;;9.96;nan
14343;BME280;7255;53.596;9.960;2023-02-17T10:17:47;100705.56;;;9.95;nan
14343;BME280;7255;53.596;9.960;2023-02-17T10:20:18;100687.06;;;9.87;nan
14343;BME280;7255;53.596;9.960;2023-02-17T10:22:50;100691.59;;;9.87;nan
14343;BME280;7255;53.596;9.960;2023-02-17T10:25:19;100709.38;;;9.88;nan
14343;BME280;7255;53.596;9.960;2023-02-17T10:27:55;100714.66;;;9.94;nan
14343;BME280;7255;53.596;9.960;2023-02-17T10:30:30;100724.63;;;9.87;nan
14343;BME280;7255;53.596;9.960;2023-02-17T10:32:59;100717.63;;;9.86;nan
14343;BME280;7255;53.596;9.960;2023-02-17T10:35:39;100707.87;;;9.92;nan
14343;BME280;7255;53.596;9.960;2023-02-17T10:38:14;100719.16;;;10.00;nan
14343;BME280;7255;53.596;9.960;2023-02-17T10:40:44;100729.13;;;9.93;nan
14343;BME280;7255;53.596;9.960;2023-02-17T10:43:14;100694.47;;;9.92;nan
14343;BME280;7255;53.596;9.960;2023-02-17T10:45:45;100711.75;;;9.96;nan
14343;BME280;7255;53.596;9.960;2023-02-17T10:48:16;100690.66;;;9.99;nan
14343;BME280;7255;53.596;9.960;2023-02-17T10:50:44;100695.16;;;10.06;nan
14343;BME280;7255;53.596;9.960;2023-02-17T10:53:14;100696.78;;;10.07;nan
14343;BME280;7255;53.596;9.960;2023-02-17T10:55:52;100674.87;;;10.10;nan
14343;BME280;7255;53.596;9.960;2023-02-17T10:58:24;100696.78;;;10.07;nan
14343;BME280;7255;53.596;9.960;2023-02-17T11:00:53;100693.84;;;10.15;nan
14343;BME280;7255;53.596;9.960;2023-02-17T11:03:23;100675.25;;;10.13;nan
14343;BME280;7255;53.596;9.960;2023-02-17T11:05:52;100682.25;;;10.14;nan
14343;BME280;7255;53.596;9.960;2023-02-17T11:08:28;100666.97;;;10.15;nan
14343;BME280;7255;53.596;9.960;2023-02-17T11:11:00;100673.09;;;10.22;nan
14343;BME280;7255;53.596;9.960;2023-02-17T11:13:31;100681.37;;;10.20;nan
14343;BME280;7255;53.596;9.960;2023-02-17T11:15:59;100674.28;;;10.26;nan
14343;BME280;7255;53.596;9.960;2023-02-17T11:18:28;100676.00;;;10.20;nan
14343;BME280;7255;53.596;9.960;2023-02-17T11:21:01;100688.00;;;10.18;nan
14343;BME280;7255;53.596;9.960;2023-02-17T11:23:30;100679.34;;;10.16;nan
14343;BME280;7255;53.596;9.960;2023-02-17T11:25:59;100681.28;;;10.27;nan
14343;BME280;7255;53.596;9.960;2023-02-17T11:28:27;100679.66;;;10.26;nan
14343;BME280;7255;53.596;9.960;2023-02-17T11:30:54;100672.19;;;10.28;nan
14343;BME280;7255;53.596;9.960;2023-02-17T11:33:28;100682.13;;;10.28;nan
14343;BME280;7255;53.596;9.960;2023-02-17T11:35:55;100674.28;;;10.26;nan
14343;BME280;7255;53.596;9.960;2023-02-17T11:38:24;100666.50;;;10.18;nan
14343;BME280;7255;53.596;9.960;2023-02-17T11:40:54;100676.50;;;10.11;nan
14343;BME280;7255;53.596;9.960;2023-02-17T11:43:21;100667.41;;;10.12;nan
14343;BME280;7255;53.596;9.960;2023-02-17T11:45:53;100678.16;;;10.12;nan
14343;BME280;7255;53.596;9.960;2023-02-17T11:48:35;100647.13;;;10.16;nan
14343;BME280;7255;53.596;9.960;2023-02-17T11:51:09;100661.63;;;10.15;nan
14343;BME280;7255;53.596;9.960;2023-02-17T11:53:48;100650.41;;;10.18;nan
14343;BME280;7255;53.596;9.960;2023-02-17T11:56:19;100656.69;;;10.12;nan
14343;BME280;7255;53.596;9.960;2023-02-17T11:59:15;100658.69;;;10.16;nan
14343;BME280;7255;53.596;9.960;2023-02-17T12:02:01;100654.59;;;10.14;nan
14343;BME280;7255;53.596;9.960;2023-02-17T12:04:31;100673.09;;;10.22;nan
14343;BME280;7255;53.596;9.960;2023-02-17T12:07:17;100658.63;;;10.23;nan
14343;BME280;7255;53.596;9.960;2023-02-17T12:09:55;100675.09;;;10.27;nan
14343;BME280;7255;53.596;9.960;2023-02-17T12:12:34;100653.13;;;10.36;nan
14343;BME280;7255;53.596;9.960;2023-02-17T12:15:20;100659.38;;;10.30;nan
14343;BME280;7255;53.596;9.960;2023-02-17T12:17:54;100665.88;;;10.41;nan
14343;BME280;7255;53.596;9.960;2023-02-17T12:20:36;100663.41;;;10.39;nan
14343;BME280;7255;53.596;9.960;2023-02-17T12:23:14;100662.97;;;10.43;nan
14343;BME280;7255;53.596;9.960;2023-02-17T12:25:49;100667.06;;;10.45;nan
14343;BME280;7255;53.596;9.960;2023-02-17T12:28:43;100668.09;;;10.63;nan
14343;BME280;7255;53.596;9.960;2023-02-17T12:31:20;100659.47;;;10.61;nan
14343;BME280;7255;53.596;9.960;2023-02-17T12:33:56;100645.41;;;10.58;nan
14343;BME280;7255;53.596;9.960;2023-02-17T12:36:28;100655.34;;;10.58;nan
14343;BME280;7255;53.596;9.960;2023-02-17T12:38:58;100648.34;;;10.57;nan
14343;BME280;7255;53.596;9.960;2023-02-17T12:41:28;100645.12;;;10.48;nan
14343;BME280;7255;53.596;9.960;2023-02-17T12:44:00;100650.59;;;10.42;nan
14343;BME280;7255;53.596;9.960;2023-02-17T12:46:31;100667.44;;;10.49;nan
14343;BME280;7255;53.596;9.960;2023-02-17T12:49:04;100652.50;;;10.53;nan
14343;BME280;7255;53.596;9.960;2023-02-17T12:51:37;100677.81;;;10.45;nan
14343;BME280;7255;53.596;9.960;2023-02-17T12:54:09;100670.81;;;10.44;nan
14343;BME280;7255;53.596;9.960;2023-02-17T12:56:58;100680.22;;;10.53;nan
14343;BME280;7255;53.596;9.960;2023-02-17T12:59:33;100670.81;;;10.44;nan
14343;BME280;7255;53.596;9.960;2023-02-17T13:02:02;100674.00;;;10.53;nan
14343;BME280;7255;53.596;9.960;2023-02-17T13:04:30;100670.34;;;10.47;nan
14343;BME280;7255;53.596;9.960;2023-02-17T13:07:03;100666.25;;;10.45;nan
14343;BME280;7255;53.596;9.960;2023-02-17T13:09:33;100659.69;;;10.40;nan
14343;BME280;7255;53.596;9.960;2023-02-17T13:12:17;100678.63;;;10.46;nan
14343;BME280;7255;53.596;9.960;2023-02-17T13:14:56;100675.34;;;10.44;nan
14343;BME280;7255;53.596;9.960;2023-02-17T13:17:26;100644.84;;;10.38;nan
14343;BME280;7255;53.596;9.960;2023-02-17T13:20:03;100680.28;;;10.47;nan
14343;BME280;7255;53.596;9.960;2023-02-17T13:22:30;100678.19;;;10.49;nan
14343;BME280;7255;53.596;9.960;2023-02-17T13:24:56;100679.00;;;10.49;nan
14343;BME280;7255;53.596;9.960;2023-02-17T13:27:31;100693.28;;;10.50;nan
14343;BME280;7255;53.596;9.960;2023-02-17T13:30:00;100694.75;;;10.46;nan
14343;BME280;7255;53.596;9.960;2023-02-17T13:32:28;100675.28;;;10.50;nan
14343;BME280;7255;53.596;9.960;2023-02-17T13:34:59;100689.38;;;10.46;nan
14343;BME280;7255;53.596;9.960;2023-02-17T13:37:38;100686.03;;;10.50;nan
14343;BME280;7255;53.596;9.960;2023-02-17T13:43:09;100677.56;;;10.65;nan
14343;BME280;7255;53.596;9.960;2023-02-17T13:45:43;100672.19;;;10.65;nan